Terminal Aerodrome Forecast
Issued by NWS Upton, NY

Home | Current Version | Previous Version | Text Only | Print | Product List | Glossary On
Versions: 1 2 3 4 5 6 7 8 9 10 11 12 13 14 15 16 17 18 19 20 21 22 23 24 25 26 27 28 29 30 31 32 33 34
000
FTUS41 KOKX 072320
TAFISP
TAF
KISP 072320Z 0800/0824 19008KT P6SM SCT007 BKN045
     FM080100 21008KT 6SM BR SCT007 BKN250
     FM080600 22007KT 5SM BR SCT007 BKN250
     FM081400 26010KT P6SM BKN040=

USA.gov is the U.S. government's official web portal to all federal, state and local government web resources and services.